createdAt,value
2022-10-11T00:01:56.103Z,56.10
2022-10-11T00:04:22.857Z,56.30
2022-10-11T00:06:49.623Z,56.20
2022-10-11T00:09:16.388Z,56.20
2022-10-11T00:11:43.564Z,56.10
2022-10-11T00:14:12.965Z,56.10
2022-10-11T00:16:42.175Z,56.60
2022-10-11T00:19:08.906Z,55.90
2022-10-11T00:21:36.711Z,56.00
2022-10-11T00:24:04.435Z,56.00
2022-10-11T00:26:31.225Z,56.00
2022-10-11T00:28:57.924Z,56.10
2022-10-11T00:31:24.800Z,55.90
2022-10-11T00:33:53.764Z,55.90
2022-10-11T00:36:21.115Z,55.90
2022-10-11T00:38:48.393Z,55.80
2022-10-11T00:41:15.874Z,55.80
2022-10-11T00:43:43.406Z,55.80
2022-10-11T00:46:19.191Z,55.80
2022-10-11T00:49:01.490Z,55.70
2022-10-11T00:51:34.312Z,55.60
2022-10-11T00:54:02.662Z,55.40
2022-10-11T00:56:36.502Z,55.40
2022-10-11T00:59:08.606Z,55.30
2022-10-11T01:01:35.530Z,55.40
2022-10-11T01:04:02.907Z,55.40
2022-10-11T01:06:29.886Z,55.50
2022-10-11T01:08:56.894Z,55.50
2022-10-11T01:11:26.878Z,55.40
2022-10-11T01:13:59.195Z,55.40
2022-10-11T01:16:37.121Z,55.40
2022-10-11T01:19:12.903Z,55.40
2022-10-11T01:22:01.456Z,55.30
2022-10-11T01:24:57.720Z,55.30
2022-10-11T01:27:48.100Z,55.30
2022-10-11T01:30:32.430Z,55.30
2022-10-11T01:33:26.723Z,55.10
2022-10-11T01:36:27.693Z,55.10
2022-10-11T01:39:04.462Z,55.20
2022-10-11T01:41:44.019Z,55.10
2022-10-11T01:44:13.088Z,55.10
2022-10-11T01:46:40.912Z,54.90
2022-10-11T01:49:08.267Z,54.90
2022-10-11T01:51:42.905Z,54.90
2022-10-11T01:54:16.591Z,54.80
2022-10-11T01:56:49.019Z,54.90
2022-10-11T01:59:34.380Z,54.90
2022-10-11T02:02:04.111Z,54.80
2022-10-11T02:04:38.487Z,54.80
2022-10-11T02:07:16.753Z,54.90
2022-10-11T02:09:56.688Z,54.80
2022-10-11T02:13:05.351Z,54.80
2022-10-11T02:15:36.630Z,54.70
2022-10-11T02:18:09.878Z,54.70
2022-10-11T02:20:39.603Z,54.60
2022-10-11T02:23:14.366Z,54.70
2022-10-11T02:25:42.746Z,54.70
2022-10-11T02:28:14.153Z,54.70
2022-10-11T02:30:44.718Z,54.70
2022-10-11T02:33:15.006Z,54.50
2022-10-11T02:35:49.850Z,54.50
2022-10-11T02:38:24.549Z,54.60
2022-10-11T02:40:58.323Z,54.50
2022-10-11T02:43:41.608Z,54.50
2022-10-11T02:46:10.046Z,55.10
2022-10-11T02:48:37.730Z,54.50
2022-10-11T02:51:04.892Z,54.30
2022-10-11T02:53:33.511Z,54.30
2022-10-11T02:56:00.257Z,54.30
2022-10-11T02:58:27.023Z,54.30
2022-10-11T03:00:56.768Z,54.20
2022-10-11T03:03:23.504Z,54.20
2022-10-11T03:05:50.221Z,54.20
2022-10-11T03:08:17.429Z,54.20
2022-10-11T03:10:44.259Z,54.20
2022-10-11T03:13:14.801Z,54.20
2022-10-11T03:15:44.013Z,54.10
2022-10-11T03:18:10.723Z,53.90
2022-10-11T03:20:37.463Z,54.00
2022-10-11T03:23:04.192Z,54.00
2022-10-11T03:25:30.982Z,54.10
2022-10-11T03:27:57.737Z,54.10
2022-10-11T03:30:24.544Z,54.00
2022-10-11T03:32:51.802Z,54.00
2022-10-11T03:35:18.600Z,54.00
2022-10-11T03:37:45.638Z,54.00
2022-10-11T03:40:13.356Z,54.10
2022-10-11T03:42:40.970Z,54.00
2022-10-11T03:45:08.953Z,53.90
2022-10-11T03:47:39.524Z,53.90
2022-10-11T03:50:09.170Z,54.00
2022-10-11T03:52:36.471Z,54.00
2022-10-11T03:55:03.549Z,53.90
2022-10-11T03:57:30.572Z,53.80
2022-10-11T03:59:57.810Z,53.80
2022-10-11T04:02:24.750Z,53.90
2022-10-11T04:04:51.495Z,53.80
2022-10-11T04:07:18.657Z,53.80
2022-10-11T04:09:47.899Z,54.40
2022-10-11T04:12:14.751Z,53.80
2022-10-11T04:14:41.498Z,53.70
2022-10-11T04:17:08.224Z,53.70
2022-10-11T04:19:37.168Z,53.80
2022-10-11T04:22:05.025Z,53.70
2022-10-11T04:24:32.190Z,53.70
2022-10-11T04:26:58.957Z,53.80
2022-10-11T04:29:28.884Z,53.80
2022-10-11T04:32:02.075Z,53.60
2022-10-11T04:34:28.817Z,53.70
2022-10-11T04:36:56.065Z,53.70
2022-10-11T04:39:22.800Z,53.60
2022-10-11T04:41:49.521Z,53.70
2022-10-11T04:44:16.276Z,53.60
2022-10-11T04:46:42.976Z,53.70
2022-10-11T04:49:09.769Z,53.70
2022-10-11T04:51:36.579Z,53.70
2022-10-11T04:54:03.884Z,53.70
2022-10-11T04:56:30.649Z,53.70
2022-10-11T04:58:57.393Z,54.20
2022-10-11T05:01:24.292Z,53.60
2022-10-11T05:03:51.070Z,53.70
2022-10-11T05:06:17.822Z,53.50
2022-10-11T05:08:44.661Z,53.60
2022-10-11T05:11:15.803Z,53.50
2022-10-11T05:13:43.411Z,53.50
2022-10-11T05:16:11.519Z,53.40
2022-10-11T05:18:40.732Z,53.40
2022-10-11T05:21:14.605Z,53.50
2022-10-11T05:23:41.413Z,52.60
2022-10-11T05:26:08.489Z,53.40
2022-10-11T05:28:35.895Z,54.10
2022-10-11T05:31:02.712Z,52.80
2022-10-11T05:33:29.528Z,52.50
2022-10-11T05:35:56.295Z,51.90
2022-10-11T05:38:24.125Z,50.30
2022-10-11T05:40:50.894Z,50.50
2022-10-11T05:43:18.245Z,50.50
2022-10-11T05:45:45.407Z,50.70
2022-10-11T05:48:13.045Z,51.30
2022-10-11T05:50:39.773Z,51.50
2022-10-11T05:53:06.900Z,51.70
2022-10-11T05:55:41.089Z,51.60
2022-10-11T05:58:10.114Z,51.50
2022-10-11T06:00:40.695Z,51.70
2022-10-11T06:03:08.588Z,51.80
2022-10-11T06:05:35.793Z,51.80
2022-10-11T06:08:03.699Z,51.80
2022-10-11T06:10:30.887Z,51.70
2022-10-11T06:12:58.131Z,51.80
2022-10-11T06:15:27.547Z,51.70
2022-10-11T06:17:54.955Z,51.60
2022-10-11T06:20:24.604Z,48.40
2022-10-11T06:22:53.478Z,49.80
2022-10-11T06:25:20.714Z,51.40
2022-10-11T06:27:47.875Z,52.10
2022-10-11T06:30:15.196Z,52.70
2022-10-11T06:32:41.932Z,52.30
2022-10-11T06:35:09.514Z,51.60
2022-10-11T06:37:36.849Z,51.80
2022-10-11T06:40:04.681Z,51.10
2022-10-11T06:42:31.396Z,51.20
2022-10-11T06:45:01.029Z,52.40
2022-10-11T06:47:27.731Z,53.20
2022-10-11T06:49:54.466Z,53.10
2022-10-11T06:52:21.154Z,53.80
2022-10-11T06:54:48.348Z,53.30
2022-10-11T06:57:15.651Z,52.50
2022-10-11T06:59:42.376Z,52.70
2022-10-11T07:02:12.117Z,53.10
2022-10-11T07:04:39.353Z,53.30
2022-10-11T07:07:06.064Z,53.10
2022-10-11T07:09:34.308Z,53.40
2022-10-11T07:12:00.915Z,53.60
2022-10-11T07:14:27.676Z,53.80
2022-10-11T07:16:57.983Z,53.80
2022-10-11T07:19:24.740Z,53.80
2022-10-11T07:21:51.632Z,53.90
2022-10-11T07:24:18.441Z,54.70
2022-10-11T07:26:45.829Z,54.20
2022-10-11T07:29:12.605Z,54.10
2022-10-11T07:31:42.048Z,53.50
2022-10-11T07:34:09.707Z,54.70
2022-10-11T07:36:36.970Z,55.30
2022-10-11T07:39:07.897Z,55.60
2022-10-11T07:41:35.621Z,55.70
2022-10-11T07:44:03.235Z,55.00
2022-10-11T07:46:30.358Z,56.00
2022-10-11T07:48:57.552Z,56.70
2022-10-11T07:51:25.656Z,56.70
2022-10-11T07:53:55.430Z,56.90
2022-10-11T07:56:27.619Z,57.10
2022-10-11T07:58:57.402Z,57.40
2022-10-11T08:01:25.367Z,57.80
2022-10-11T08:03:52.566Z,57.90
2022-10-11T08:06:23.099Z,58.00
2022-10-11T08:08:49.977Z,58.30
2022-10-11T08:11:37.145Z,58.50
2022-10-11T08:14:08.590Z,59.60
2022-10-11T08:16:39.453Z,61.20
2022-10-11T08:19:06.685Z,62.80
2022-10-11T08:21:33.945Z,63.70
2022-10-11T08:24:03.031Z,64.50
2022-10-11T08:26:30.256Z,65.50
2022-10-11T08:28:58.632Z,66.40
2022-10-11T08:31:25.374Z,67.00
2022-10-11T08:33:52.127Z,67.20
2022-10-11T08:36:18.874Z,68.10
2022-10-11T08:38:45.599Z,68.00
2022-10-11T08:41:47.372Z,68.90
2022-10-11T08:44:23.182Z,68.40
2022-10-11T08:47:00.323Z,68.80
2022-10-11T08:49:32.434Z,68.40
2022-10-11T08:52:35.151Z,69.00
2022-10-11T08:55:08.325Z,68.70
2022-10-11T08:57:37.233Z,69.30
2022-10-11T09:00:12.629Z,69.40
2022-10-11T09:03:07.537Z,68.60
2022-10-11T09:05:39.017Z,69.10
2022-10-11T09:08:36.857Z,70.10
2022-10-11T09:11:12.903Z,68.50
2022-10-11T09:13:57.636Z,69.80
2022-10-11T09:16:38.157Z,69.90
2022-10-11T09:19:07.941Z,69.30
2022-10-11T09:21:53.639Z,68.80
2022-10-11T09:24:37.854Z,69.10
2022-10-11T09:27:57.860Z,69.50
2022-10-11T09:30:21.164Z,69.20
2022-10-11T09:32:59.512Z,69.30
2022-10-11T09:35:28.294Z,67.90
2022-10-11T09:38:19.070Z,67.20
2022-10-11T09:40:53.880Z,67.60
2022-10-11T09:43:23.205Z,68.10
2022-10-11T09:45:49.959Z,67.60
2022-10-11T09:48:32.928Z,66.90
2022-10-11T09:51:05.090Z,66.50
2022-10-11T09:54:02.215Z,67.30
2022-10-11T09:56:31.730Z,67.10
2022-10-11T09:59:24.180Z,66.80
2022-10-11T10:02:18.389Z,66.60
2022-10-11T10:04:57.039Z,66.90
2022-10-11T10:07:24.681Z,66.60
2022-10-11T10:09:52.791Z,66.40
2022-10-11T10:12:26.439Z,66.20
2022-10-11T10:15:00.344Z,66.00
2022-10-11T10:17:27.184Z,65.80
2022-10-11T10:19:56.239Z,66.30
2022-10-11T10:22:29.054Z,65.40
2022-10-11T10:24:56.989Z,63.10
2022-10-11T10:27:25.677Z,64.20
2022-10-11T10:30:15.984Z,64.10
2022-10-11T10:33:05.975Z,64.80
2022-10-11T10:35:43.430Z,65.50
2022-10-11T10:38:24.086Z,65.50
2022-10-11T10:40:56.643Z,64.90
2022-10-11T10:43:26.272Z,63.10
2022-10-11T10:46:14.610Z,63.20
2022-10-11T10:49:28.713Z,62.60
2022-10-11T10:52:09.748Z,62.60
2022-10-11T10:55:14.510Z,62.00
2022-10-11T10:58:12.896Z,61.10
2022-10-11T11:00:48.622Z,61.20
2022-10-11T11:03:33.366Z,59.10
2022-10-11T11:06:07.795Z,58.50
2022-10-11T11:08:56.844Z,58.40
2022-10-11T11:11:43.597Z,57.50
2022-10-11T11:14:29.182Z,58.30
2022-10-11T11:17:22.036Z,59.40
2022-10-11T11:20:17.707Z,60.10
2022-10-11T11:23:23.431Z,61.10
2022-10-11T11:26:29.115Z,60.60
2022-10-11T11:29:10.568Z,59.50
2022-10-11T11:31:37.249Z,58.90
2022-10-11T11:34:27.978Z,59.00
2022-10-11T11:37:00.213Z,59.90
2022-10-11T11:39:32.963Z,59.80
2022-10-11T11:42:08.866Z,58.40
2022-10-11T11:44:40.015Z,59.20
2022-10-11T11:47:13.741Z,58.50
2022-10-11T11:49:49.489Z,58.50
2022-10-11T11:52:39.391Z,59.20
2022-10-11T11:55:11.668Z,58.60
2022-10-11T11:57:50.965Z,58.20
2022-10-11T12:00:24.081Z,57.80
2022-10-11T12:02:58.712Z,57.30
2022-10-11T12:05:33.903Z,57.60
2022-10-11T12:08:23.408Z,58.00
2022-10-11T12:10:50.076Z,58.80
2022-10-11T12:13:24.822Z,59.60
2022-10-11T12:16:04.648Z,58.30
2022-10-11T12:18:33.939Z,58.20
2022-10-11T12:21:07.091Z,57.40
2022-10-11T12:23:44.060Z,57.80
2022-10-11T12:26:29.242Z,57.10
2022-10-11T12:29:25.922Z,56.40
2022-10-11T12:32:03.382Z,57.10
2022-10-11T12:37:20.541Z,56.80
2022-10-11T12:39:55.610Z,56.30
2022-10-11T12:42:29.913Z,56.90
2022-10-11T12:45:14.352Z,56.20
2022-10-11T12:48:05.780Z,56.80
2022-10-11T12:50:45.299Z,56.40
2022-10-11T12:53:32.756Z,57.30
2022-10-11T12:56:12.071Z,57.30
2022-10-11T12:58:41.609Z,57.00
2022-10-11T13:01:13.856Z,56.20
2022-10-11T13:03:44.267Z,54.20
2022-10-11T13:06:25.078Z,55.00
2022-10-11T13:08:57.126Z,56.20
2022-10-11T13:11:32.718Z,56.50
2022-10-11T13:14:06.223Z,57.60
2022-10-11T13:17:04.428Z,56.40
2022-10-11T13:19:33.554Z,55.60
2022-10-11T13:22:04.076Z,57.70
2022-10-11T13:24:39.466Z,55.60
2022-10-11T13:27:07.871Z,56.90
2022-10-11T13:29:40.573Z,57.50
2022-10-11T13:32:20.910Z,56.80
2022-10-11T13:34:53.420Z,57.30
2022-10-11T13:37:22.809Z,56.80
2022-10-11T13:39:52.203Z,56.10
2022-10-11T13:42:23.468Z,57.10
2022-10-11T13:44:50.427Z,56.80
2022-10-11T13:47:26.738Z,57.80
2022-10-11T13:50:11.487Z,57.50
2022-10-11T13:53:17.935Z,57.30
2022-10-11T13:55:59.859Z,56.80
2022-10-11T13:58:28.589Z,57.20
2022-10-11T14:01:01.347Z,57.50
2022-10-11T14:03:38.937Z,57.80
2022-10-11T14:06:06.164Z,57.40
2022-10-11T14:08:42.376Z,57.10
2022-10-11T14:11:12.179Z,56.50
2022-10-11T14:13:47.760Z,56.80
2022-10-11T14:16:30.423Z,57.10
2022-10-11T14:19:00.208Z,56.50
2022-10-11T14:21:30.900Z,56.90
2022-10-11T14:24:00.871Z,57.10
2022-10-11T14:26:34.113Z,56.70
2022-10-11T14:29:22.162Z,56.10
2022-10-11T14:31:49.528Z,56.50
2022-10-11T14:34:22.436Z,57.20
2022-10-11T14:36:50.328Z,56.60
2022-10-11T14:39:22.350Z,56.40
2022-10-11T14:41:51.833Z,56.00
2022-10-11T14:44:19.770Z,56.60
2022-10-11T14:46:48.843Z,56.20
2022-10-11T14:49:27.584Z,56.10
2022-10-11T14:51:57.211Z,56.10
2022-10-11T14:54:25.855Z,56.20
2022-10-11T14:56:55.049Z,56.90
2022-10-11T14:59:24.571Z,56.40
2022-10-11T15:01:53.647Z,57.30
2022-10-11T15:04:26.110Z,57.30
2022-10-11T15:06:55.282Z,57.00
2022-10-11T15:09:22.692Z,56.90
2022-10-11T15:11:54.210Z,57.10
2022-10-11T15:14:23.395Z,56.80
2022-10-11T15:16:50.262Z,57.20
2022-10-11T15:19:23.439Z,57.50
2022-10-11T15:21:51.167Z,57.80
2022-10-11T15:24:19.996Z,57.60
2022-10-11T15:26:47.930Z,57.60
2022-10-11T15:29:17.957Z,57.80
2022-10-11T15:31:45.966Z,57.80
2022-10-11T15:34:12.731Z,59.10
2022-10-11T15:36:39.542Z,59.80
2022-10-11T15:39:32.677Z,59.50
2022-10-11T15:41:59.931Z,59.60
2022-10-11T15:44:26.778Z,59.20
2022-10-11T15:46:53.664Z,58.70
2022-10-11T15:49:20.978Z,58.80
2022-10-11T15:51:47.741Z,58.80
2022-10-11T15:54:14.478Z,59.80
2022-10-11T15:56:41.648Z,60.00
2022-10-11T15:59:11.477Z,60.40
2022-10-11T16:01:38.287Z,61.20
2022-10-11T16:04:05.351Z,60.70
2022-10-11T16:06:33.246Z,61.80
2022-10-11T16:08:59.951Z,61.90
2022-10-11T16:11:26.736Z,62.50
2022-10-11T16:13:53.529Z,62.20
2022-10-11T16:16:20.268Z,62.10
2022-10-11T16:18:49.229Z,63.00
2022-10-11T16:21:16.027Z,63.10
2022-10-11T16:23:43.065Z,63.20
2022-10-11T16:26:13.905Z,63.20
2022-10-11T16:28:42.052Z,63.10
2022-10-11T16:31:09.670Z,63.30
2022-10-11T16:33:45.568Z,63.40
2022-10-11T16:36:35.415Z,63.70
2022-10-11T16:39:18.269Z,63.80
2022-10-11T16:41:46.294Z,63.90
2022-10-11T16:44:27.849Z,64.20
2022-10-11T16:46:55.493Z,64.20
2022-10-11T16:49:25.208Z,64.40
2022-10-11T16:51:53.266Z,64.60
2022-10-11T16:54:21.225Z,64.70
2022-10-11T16:56:49.947Z,64.80
2022-10-11T16:59:17.350Z,64.80
2022-10-11T17:01:45.160Z,65.00
2022-10-11T17:04:13.454Z,65.10
2022-10-11T17:06:40.714Z,65.00
2022-10-11T17:09:08.235Z,65.20
2022-10-11T17:11:35.001Z,65.20
2022-10-11T17:14:02.550Z,65.20
2022-10-11T17:16:29.434Z,65.20
2022-10-11T17:18:56.207Z,65.10
2022-10-11T17:21:23.556Z,65.20
2022-10-11T17:23:50.439Z,65.20
2022-10-11T17:26:20.322Z,65.20
2022-10-11T17:28:47.548Z,65.20
2022-10-11T17:31:14.485Z,65.20
2022-10-11T17:33:41.205Z,65.20
2022-10-11T17:36:24.782Z,65.30
2022-10-11T17:38:52.397Z,65.30
2022-10-11T17:41:20.307Z,65.20
2022-10-11T17:43:47.371Z,65.30
2022-10-11T17:46:16.104Z,65.20
2022-10-11T17:48:44.540Z,65.20
2022-10-11T17:51:13.904Z,65.20
2022-10-11T17:53:40.852Z,65.20
2022-10-11T17:56:13.357Z,65.20
2022-10-11T17:58:40.206Z,65.10
2022-10-11T18:01:13.578Z,65.20
2022-10-11T18:03:40.646Z,65.20
2022-10-11T18:06:12.425Z,65.10
2022-10-11T18:08:40.845Z,65.30
2022-10-11T18:11:15.228Z,65.20
2022-10-11T18:13:46.010Z,65.10
2022-10-11T18:16:15.622Z,65.00
2022-10-11T18:18:46.221Z,65.00
2022-10-11T18:21:14.043Z,65.00
2022-10-11T18:23:41.649Z,65.00
2022-10-11T18:26:27.930Z,65.00
2022-10-11T18:28:57.484Z,64.90
2022-10-11T18:31:26.341Z,64.90
2022-10-11T18:33:54.280Z,64.80
2022-10-11T18:36:24.477Z,64.80
2022-10-11T18:38:56.808Z,64.70
2022-10-11T18:41:30.616Z,64.70
2022-10-11T18:44:00.148Z,64.70
2022-10-11T18:46:28.680Z,64.70
2022-10-11T18:48:57.652Z,64.60
2022-10-11T18:51:27.984Z,64.50
2022-10-11T18:53:55.998Z,64.60
2022-10-11T18:56:26.782Z,64.50
2022-10-11T18:58:55.620Z,64.40
2022-10-11T19:01:26.308Z,64.30
2022-10-11T19:03:57.670Z,64.10
2022-10-11T19:06:27.479Z,64.10
2022-10-11T19:09:00.031Z,64.00
2022-10-11T19:11:27.960Z,64.00
2022-10-11T19:14:00.802Z,63.90
2022-10-11T19:16:29.878Z,63.80
2022-10-11T19:18:57.824Z,63.80
2022-10-11T19:21:25.076Z,63.70
2022-10-11T19:23:52.249Z,63.60
2022-10-11T19:26:27.047Z,63.60
2022-10-11T19:29:05.501Z,63.50
2022-10-11T19:31:34.074Z,63.40
2022-10-11T19:34:01.022Z,63.50
2022-10-11T19:36:31.411Z,63.40
2022-10-11T19:39:00.908Z,63.40
2022-10-11T19:41:28.376Z,63.30
2022-10-11T19:43:58.027Z,63.30
2022-10-11T19:46:50.312Z,63.20
2022-10-11T19:49:13.989Z,63.10
2022-10-11T19:51:40.716Z,63.10
2022-10-11T19:54:10.660Z,63.00
2022-10-11T19:56:37.930Z,63.00
2022-10-11T19:59:06.437Z,63.00
2022-10-11T20:01:35.158Z,62.80
2022-10-11T20:04:04.887Z,62.70
2022-10-11T20:06:38.060Z,62.60
2022-10-11T20:09:29.641Z,62.60
2022-10-11T20:11:55.937Z,62.60
2022-10-11T20:14:22.737Z,62.50
2022-10-11T20:16:50.214Z,62.50
2022-10-11T20:19:17.200Z,62.40
2022-10-11T20:21:45.011Z,62.40
2022-10-11T20:24:11.803Z,62.40
2022-10-11T20:26:39.324Z,62.30
2022-10-11T20:29:06.382Z,62.20
2022-10-11T20:31:34.554Z,62.10
2022-10-11T20:34:04.114Z,62.00
2022-10-11T20:36:31.936Z,61.90
2022-10-11T20:38:59.779Z,61.90
2022-10-11T20:41:39.890Z,61.70
2022-10-11T20:44:07.983Z,61.60
2022-10-11T20:46:37.221Z,61.60
2022-10-11T20:49:11.303Z,61.50
2022-10-11T20:51:39.732Z,61.60
2022-10-11T20:54:06.621Z,61.60
2022-10-11T20:56:34.267Z,61.50
2022-10-11T20:59:01.347Z,61.30
2022-10-11T21:01:34.361Z,61.40
2022-10-11T21:04:01.930Z,61.30
2022-10-11T21:06:30.186Z,61.10
2022-10-11T21:08:58.935Z,61.20
2022-10-11T21:11:31.136Z,61.60
2022-10-11T21:13:59.089Z,61.10
2022-10-11T21:16:25.941Z,60.90
2022-10-11T21:18:55.514Z,60.90
2022-10-11T21:21:23.968Z,60.90
2022-10-11T21:23:54.673Z,60.80
2022-10-11T21:26:22.077Z,60.70
2022-10-11T21:28:51.209Z,61.30
2022-10-11T21:31:20.253Z,60.70
2022-10-11T21:33:47.292Z,60.80
2022-10-11T21:36:20.096Z,60.60
2022-10-11T21:38:48.027Z,60.70
2022-10-11T21:41:17.587Z,60.40
2022-10-11T21:43:44.356Z,60.40
2022-10-11T21:46:41.591Z,60.30
2022-10-11T21:49:12.892Z,60.20
2022-10-11T21:51:39.780Z,60.20
2022-10-11T21:54:06.728Z,60.10
2022-10-11T21:56:33.486Z,60.10
2022-10-11T21:59:00.268Z,60.00
2022-10-11T22:01:27.737Z,60.00
2022-10-11T22:03:54.715Z,59.80
2022-10-11T22:06:21.684Z,59.60
2022-10-11T22:08:49.932Z,59.70
2022-10-11T22:11:16.874Z,59.70
2022-10-11T22:13:43.847Z,59.60
2022-10-11T22:16:12.357Z,59.50
2022-10-11T22:18:39.619Z,59.40
2022-10-11T22:21:16.898Z,59.40
2022-10-11T22:23:46.608Z,59.30
2022-10-11T22:26:24.884Z,59.50
2022-10-11T22:28:53.252Z,59.30
2022-10-11T22:31:20.841Z,59.30
2022-10-11T22:33:47.871Z,59.20
2022-10-11T22:36:19.037Z,59.20
2022-10-11T22:38:47.488Z,59.00
2022-10-11T22:41:14.626Z,59.10
2022-10-11T22:43:41.520Z,59.00
2022-10-11T22:46:08.634Z,59.10
2022-10-11T22:48:35.889Z,58.90
2022-10-11T22:51:02.901Z,58.80
2022-10-11T22:53:30.468Z,58.90
2022-10-11T22:55:57.453Z,58.70
2022-10-11T22:58:24.200Z,58.60
2022-10-11T23:00:53.161Z,58.70
2022-10-11T23:03:20.261Z,58.60
2022-10-11T23:05:57.520Z,58.40
2022-10-11T23:08:24.738Z,58.30
2022-10-11T23:10:51.588Z,58.50
2022-10-11T23:13:18.487Z,58.30
2022-10-11T23:15:45.435Z,58.50
2022-10-11T23:18:14.891Z,58.30
2022-10-11T23:20:41.634Z,58.20
2022-10-11T23:23:08.391Z,58.20
2022-10-11T23:25:37.846Z,58.30
2022-10-11T23:28:04.804Z,58.30
2022-10-11T23:30:31.727Z,58.20
2022-10-11T23:32:58.521Z,58.30
2022-10-11T23:35:25.346Z,58.30
2022-10-11T23:37:54.239Z,58.00
2022-10-11T23:40:20.972Z,57.90
2022-10-11T23:42:47.669Z,58.10
2022-10-11T23:45:14.465Z,57.90
2022-10-11T23:47:41.310Z,58.40
2022-10-11T23:50:08.753Z,57.80
2022-10-11T23:52:35.456Z,57.90
2022-10-11T23:55:02.182Z,57.70
2022-10-11T23:57:28.955Z,57.70
2022-10-11T23:59:57.835Z,57.70
